Time;durP1;ratioP1;P1;durP2;ratioP2;P2;SDS_P1;SDS_P2;PMS_P1;PMS_P2;Temp;Humidity;BMP_temperature;BMP_pressure;BME280_temperature;BME280_humidity;BME280_pressure;Samples;Min_cycle;Max_cycle;Signal;HPM_P1;HPM_P2
2023/12/18 00:00:07;;;;;;;15.13;7.80;;;;;;;4.41;96.54;103247.19;5039643;28;20029;-86
2023/12/18 00:02:32;;;;;;;12.45;7.35;;;;;;;4.44;96.49;103244.72;5038196;28;20020;-87
2023/12/18 00:04:58;;;;;;;15.02;7.32;;;;;;;4.48;96.29;103251.78;5038764;28;20076;-86
2023/12/18 00:07:23;;;;;;;13.73;7.83;;;;;;;4.51;96.69;103251.91;5032757;28;20021;-86
2023/12/18 00:09:48;;;;;;;13.65;7.30;;;;;;;4.53;96.74;103249.38;5036478;28;20485;-87
2023/12/18 00:12:14;;;;;;;16.30;8.15;;;;;;;4.54;96.04;103244.25;5043185;28;20045;-87
2023/12/18 00:14:39;;;;;;;14.37;7.40;;;;;;;4.57;95.88;103251.25;5035431;28;20492;-86
2023/12/18 00:17:04;;;;;;;13.90;7.47;;;;;;;4.56;96.47;103237.47;5041340;28;20037;-87
2023/12/18 00:19:30;;;;;;;11.73;7.17;;;;;;;4.60;96.44;103237.59;5038795;28;20032;-88
2023/12/18 00:21:55;;;;;;;12.40;7.20;;;;;;;4.61;96.42;103235.06;5033558;28;20086;-87
2023/12/18 00:24:20;;;;;;;17.45;8.02;;;;;;;4.64;96.05;103232.59;5035468;28;20468;-88
2023/12/18 00:26:46;;;;;;;15.05;7.35;;;;;;;4.65;96.08;103229.19;5037418;28;20032;-88
2023/12/18 00:29:11;;;;;;;13.15;7.47;;;;;;;4.62;96.51;103223.91;5030004;28;20028;-86
2023/12/18 00:31:36;;;;;;;14.98;7.28;;;;;;;4.63;96.34;103225.69;5037353;28;20029;-88
2023/12/18 00:34:02;;;;;;;12.98;7.35;;;;;;;4.63;96.27;103225.69;5036387;28;20028;-87
2023/12/18 00:36:27;;;;;;;13.48;7.63;;;;;;;4.63;96.55;103223.09;5031818;28;20025;-87
2023/12/18 00:38:52;;;;;;;13.05;7.78;;;;;;;4.63;96.48;103220.53;5034493;28;20124;-87
2023/12/18 00:41:18;;;;;;;14.20;8.00;;;;;;;4.63;96.48;103217.94;5032205;28;20025;-87
2023/12/18 00:43:44;;;;;;;15.98;7.85;;;;;;;4.66;96.52;103219.78;5035276;28;20097;-87
2023/12/18 00:46:09;;;;;;;15.53;7.93;;;;;;;4.65;96.56;103213.72;5031641;28;20100;-87
2023/12/18 00:48:35;;;;;;;17.27;7.95;;;;;;;4.64;97.02;103214.53;5039699;28;20025;-88
2023/12/18 00:51:00;;;;;;;17.88;7.93;;;;;;;4.64;96.78;103211.97;5039223;28;20028;-86
2023/12/18 00:53:26;;;;;;;14.88;7.47;;;;;;;4.66;96.92;103200.00;5037895;28;20040;-86
2023/12/18 00:55:51;;;;;;;15.18;7.88;;;;;;;4.65;96.68;103198.25;5040836;28;20024;-87
2023/12/18 00:58:16;;;;;;;16.48;8.13;;;;;;;4.67;96.62;103200.91;5030380;28;20025;-88
2023/12/18 01:00:41;;;;;;;15.45;7.45;;;;;;;4.70;96.89;103212.22;5037805;28;20074;-86
2023/12/18 01:03:07;;;;;;;14.77;8.05;;;;;;;4.66;97.41;103205.16;5038927;28;20023;-88
2023/12/18 01:05:32;;;;;;;13.70;7.90;;;;;;;4.68;97.15;103206.13;5034940;28;20056;-86
2023/12/18 01:07:58;;;;;;;15.70;8.23;;;;;;;4.66;97.60;103207.75;5037383;28;20445;-88
2023/12/18 01:10:24;;;;;;;16.10;8.00;;;;;;;4.66;97.25;103200.00;5041306;28;20063;-87
2023/12/18 01:12:49;;;;;;;18.02;8.18;;;;;;;4.68;97.44;103203.53;5036112;28;20041;-87
2023/12/18 01:15:14;;;;;;;16.05;8.57;;;;;;;4.67;97.94;103199.19;5035959;28;20033;-86
2023/12/18 01:17:40;;;;;;;17.25;8.40;;;;;;;4.70;97.43;103201.91;5036547;28;20060;-86
2023/12/18 01:20:06;;;;;;;13.55;7.93;;;;;;;4.71;97.43;103201.06;5035176;28;20021;-85
2023/12/18 01:22:32;;;;;;;14.13;8.20;;;;;;;4.73;97.61;103190.81;5038635;28;20022;-86
2023/12/18 01:24:57;;;;;;;17.83;9.03;;;;;;;4.73;97.93;103189.94;5035431;28;20372;-86
2023/12/18 01:27:23;;;;;;;18.67;8.57;;;;;;;4.71;97.65;103189.88;5038842;28;20464;-87
2023/12/18 01:29:48;;;;;;;16.45;8.57;;;;;;;4.71;98.00;103193.34;5038539;28;21690;-85
2023/12/18 01:32:13;;;;;;;16.67;8.60;;;;;;;4.71;98.14;103193.34;5032599;28;20576;-87
2023/12/18 01:34:39;;;;;;;17.70;8.55;;;;;;;4.72;98.39;103191.63;5035043;28;20033;-85
2023/12/18 01:37:05;;;;;;;16.17;8.63;;;;;;;4.71;98.81;103198.50;5039302;28;20114;-84
2023/12/18 01:39:31;;;;;;;15.83;8.53;;;;;;;4.73;98.82;103195.09;5035666;28;20026;-84
2023/12/18 01:41:57;;;;;;;16.40;8.50;;;;;;;4.73;99.17;103203.69;5039854;28;20128;-84
2023/12/18 01:44:22;;;;;;;17.93;8.70;;;;;;;4.75;98.65;103204.63;5034585;28;20130;-85
2023/12/18 01:46:47;;;;;;;14.20;8.50;;;;;;;4.75;99.45;103207.22;5034092;28;20042;-85
2023/12/18 01:49:13;;;;;;;13.38;7.55;;;;;;;4.75;99.51;103199.47;5048833;28;20471;-85
2023/12/18 01:51:39;;;;;;;15.80;8.23;;;;;;;4.78;99.22;103202.16;5035156;28;20049;-85
2023/12/18 01:54:05;;;;;;;16.40;8.77;;;;;;;4.79;99.73;103201.34;5034323;28;20381;-85
2023/12/18 01:56:32;;;;;;;15.98;8.52;;;;;;;4.80;99.77;103192.78;5037982;28;20018;-85
2023/12/18 01:58:59;;;;;;;15.40;8.98;;;;;;;4.83;99.54;103202.34;5047425;28;20051;-84
2023/12/18 02:01:26;;;;;;;14.63;8.70;;;;;;;4.86;99.37;103198.19;5032650;28;20014;-84
2023/12/18 02:03:52;;;;;;;17.70;9.10;;;;;;;4.86;100.00;103193.03;5040471;28;20552;-85
2023/12/18 02:06:18;;;;;;;18.48;9.70;;;;;;;4.90;99.53;103191.44;5041957;28;20028;-85
2023/12/18 02:08:43;;;;;;;20.50;10.10;;;;;;;4.89;100.00;103183.63;5034854;28;20384;-84
2023/12/18 02:11:09;;;;;;;17.27;9.30;;;;;;;4.86;100.00;103185.28;5034775;28;20021;-85
2023/12/18 02:13:34;;;;;;;16.27;9.13;;;;;;;4.86;100.00;103177.56;5033816;28;20519;-86
2023/12/18 02:15:59;;;;;;;15.85;8.80;;;;;;;4.89;100.00;103168.13;5034137;28;20025;-85
2023/12/18 02:18:25;;;;;;;15.48;8.88;;;;;;;4.91;99.96;103182.88;5034616;28;20071;-84
2023/12/18 02:20:50;;;;;;;19.08;9.90;;;;;;;4.88;100.00;103172.44;5032759;28;20034;-85
2023/12/18 02:23:16;;;;;;;18.05;9.98;;;;;;;4.87;100.00;103175.84;5032877;28;20044;-85
2023/12/18 02:25:41;;;;;;;16.85;9.13;;;;;;;4.86;100.00;103169.81;5037634;28;20090;-84
2023/12/18 02:28:11;;;;;;;17.27;9.18;;;;;;;4.88;100.00;103180.19;5034230;28;20017;-84
2023/12/18 02:30:37;;;;;;;17.77;9.30;;;;;;;4.90;100.00;103168.22;5037068;28;20106;-84
2023/12/18 02:33:03;;;;;;;16.87;9.33;;;;;;;4.90;100.00;103172.47;5033929;28;20480;-85
2023/12/18 02:35:28;;;;;;;17.35;8.93;;;;;;;4.90;100.00;103168.22;5033778;28;20494;-84
2023/12/18 02:37:53;;;;;;;19.37;9.60;;;;;;;4.91;100.00;103171.66;5034874;28;20033;-84
2023/12/18 02:40:19;;;;;;;24.90;10.60;;;;;;;4.91;100.00;103169.97;5034259;28;20059;-84
2023/12/18 02:42:44;;;;;;;17.30;9.20;;;;;;;4.91;100.00;103166.50;5034064;28;20029;-85
2023/12/18 02:45:10;;;;;;;15.85;8.85;;;;;;;4.90;100.00;103163.06;5033984;28;20082;-85
2023/12/18 02:47:36;;;;;;;16.80;9.50;;;;;;;4.90;100.00;103163.06;5033776;28;20024;-84
2023/12/18 02:50:01;;;;;;;18.80;9.60;;;;;;;4.93;100.00;103152.84;5035599;28;20021;-84
2023/12/18 02:52:26;;;;;;;19.67;9.60;;;;;;;4.91;100.00;103140.72;5034648;28;20028;-85
2023/12/18 02:54:52;;;;;;;18.23;9.57;;;;;;;4.95;100.00;103150.31;5041491;28;20068;-84
2023/12/18 02:57:17;;;;;;;19.37;10.43;;;;;;;4.92;100.00;103145.94;5036887;28;20432;-85
2023/12/18 02:59:42;;;;;;;18.33;9.90;;;;;;;4.92;100.00;103148.50;5035292;28;20523;-86
2023/12/18 03:02:08;;;;;;;18.08;9.18;;;;;;;4.92;100.00;103143.34;5033405;28;20576;-85
2023/12/18 03:04:33;;;;;;;16.40;9.50;;;;;;;4.93;100.00;103142.53;5033114;28;20104;-85
2023/12/18 03:06:58;;;;;;;16.90;9.77;;;;;;;4.93;100.00;103147.69;5044907;28;20033;-85
2023/12/18 03:09:24;;;;;;;15.75;8.93;;;;;;;4.93;100.00;103145.13;5039898;28;20107;-85
2023/12/18 03:11:49;;;;;;;17.55;9.07;;;;;;;4.94;100.00;103138.25;5041595;28;20025;-85
2023/12/18 03:14:14;;;;;;;19.42;9.57;;;;;;;4.93;100.00;103142.53;5037406;28;20022;-85
2023/12/18 03:16:40;;;;;;;17.35;9.43;;;;;;;4.94;100.00;103146.88;5039054;28;20116;-86
2023/12/18 03:19:06;;;;;;;19.52;10.10;;;;;;;4.95;100.00;103145.16;5039073;28;20021;-85
2023/12/18 03:21:32;;;;;;;17.17;9.32;;;;;;;4.94;100.00;103136.56;5032190;28;20056;-85
2023/12/18 03:23:58;;;;;;;16.65;9.70;;;;;;;4.93;100.00;103136.47;5033752;28;20029;-85
2023/12/18 03:26:23;;;;;;;16.27;9.43;;;;;;;4.94;100.00;103143.41;5037616;28;20029;-86
2023/12/18 03:28:49;;;;;;;16.87;9.07;;;;;;;4.95;100.00;103135.69;5038950;28;20532;-85
2023/12/18 03:31:15;;;;;;;18.45;9.38;;;;;;;4.94;100.00;103144.28;5033133;28;20025;-85
2023/12/18 03:33:41;;;;;;;15.55;9.68;;;;;;;4.95;100.00;103150.31;5032474;28;20028;-85
2023/12/18 03:36:07;;;;;;;19.03;9.97;;;;;;;4.93;100.00;103132.22;5034970;28;20033;-85
2023/12/18 03:38:32;;;;;;;17.52;9.70;;;;;;;4.92;100.00;103135.63;5041933;28;20026;-86
2023/12/18 03:40:58;;;;;;;17.90;10.13;;;;;;;4.96;100.00;103137.47;5031944;28;20468;-85
2023/12/18 03:43:24;;;;;;;18.30;10.35;;;;;;;4.94;100.00;103133.97;5034768;28;20017;-85
2023/12/18 03:45:49;;;;;;;20.50;9.98;;;;;;;4.92;100.00;103135.63;5034372;28;20538;-85
2023/12/18 03:48:15;;;;;;;18.60;9.90;;;;;;;4.94;100.00;103133.97;5032850;28;20033;-85
2023/12/18 03:50:41;;;;;;;21.35;9.93;;;;;;;4.92;100.00;103140.78;5032694;28;20029;-86
2023/12/18 03:53:08;;;;;;;18.05;10.00;;;;;;;4.92;100.00;103143.34;5031969;28;20469;-85
2023/12/18 03:55:34;;;;;;;20.27;9.85;;;;;;;4.92;100.00;103143.34;5032370;28;20018;-85
2023/12/18 03:57:59;;;;;;;18.95;10.25;;;;;;;4.94;100.00;103157.19;5031766;28;20431;-84
2023/12/18 04:00:25;;;;;;;19.77;10.60;;;;;;;4.94;100.00;103157.19;5032836;28;20029;-85
2023/12/18 04:02:50;;;;;;;19.43;10.57;;;;;;;4.95;100.00;103155.47;5029183;28;20464;-84
2023/12/18 04:05:16;;;;;;;20.50;10.40;;;;;;;4.95;100.00;103146.03;5039293;28;20420;-84
2023/12/18 04:07:41;;;;;;;19.77;10.03;;;;;;;4.94;100.00;103141.72;5035776;28;20463;-85
2023/12/18 04:10:07;;;;;;;20.60;10.45;;;;;;;4.96;100.00;103139.16;5032375;28;20028;-84
2023/12/18 04:12:33;;;;;;;18.98;10.52;;;;;;;4.93;100.00;103137.38;5032178;28;20045;-85
2023/12/18 04:14:58;;;;;;;19.20;10.63;;;;;;;4.94;100.00;103139.13;5036420;28;20033;-84
2023/12/18 04:17:23;;;;;;;20.55;10.57;;;;;;;4.94;100.00;103135.66;5035651;28;20024;-85
2023/12/18 04:19:49;;;;;;;19.60;10.82;;;;;;;4.93;100.00;103136.47;5034441;28;20017;-84
2023/12/18 04:22:14;;;;;;;19.13;10.50;;;;;;;4.94;100.00;103133.06;5031483;28;20404;-84
2023/12/18 04:24:39;;;;;;;19.90;10.20;;;;;;;4.95;100.00;103145.16;5036893;28;20051;-84
2023/12/18 04:27:05;;;;;;;18.45;10.15;;;;;;;4.95;100.00;103135.69;5038762;28;20116;-85
2023/12/18 04:29:30;;;;;;;19.52;10.73;;;;;;;4.96;100.00;103136.59;5039170;28;20157;-84
2023/12/18 04:31:55;;;;;;;19.80;10.70;;;;;;;4.95;100.00;103125.38;5037964;28;20036;-84
2023/12/18 04:34:21;;;;;;;23.47;11.10;;;;;;;4.96;100.00;103129.72;5033151;28;20036;-84
2023/12/18 04:36:46;;;;;;;20.95;11.10;;;;;;;4.96;100.00;103126.28;5037590;28;20034;-84
2023/12/18 04:39:11;;;;;;;21.00;10.77;;;;;;;4.96;100.00;103121.97;5029886;28;20515;-85
2023/12/18 04:41:37;;;;;;;20.67;10.30;;;;;;;4.94;100.00;103126.25;5031895;28;20396;-85
2023/12/18 04:44:02;;;;;;;21.98;10.57;;;;;;;4.94;100.00;103127.91;5038785;28;20105;-85
2023/12/18 04:46:33;;;;;;;21.20;10.77;;;;;;;4.94;100.00;103133.06;5031749;28;20079;-85
2023/12/18 04:48:58;;;;;;;19.73;10.77;;;;;;;4.94;100.00;103127.91;5035256;28;20369;-84
2023/12/18 04:51:25;;;;;;;22.17;10.73;;;;;;;4.93;100.00;103134.78;5031506;28;20140;-85
2023/12/18 04:53:50;;;;;;;19.73;11.20;;;;;;;4.94;100.00;103123.66;5031265;28;20392;-85
2023/12/18 04:56:15;;;;;;;18.80;10.70;;;;;;;4.94;100.00;103122.75;5032559;28;20508;-85
2023/12/18 04:58:41;;;;;;;19.50;10.32;;;;;;;4.95;100.00;103120.22;5031036;28;20053;-84
2023/12/18 05:01:06;;;;;;;20.70;10.50;;;;;;;4.95;100.00;103119.34;5029965;28;20097;-85
2023/12/18 05:03:31;;;;;;;19.73;10.27;;;;;;;4.95;100.00;103119.34;5037005;28;20057;-86
2023/12/18 05:05:57;;;;;;;21.77;11.20;;;;;;;4.94;100.00;103121.06;5032956;28;20175;-85
2023/12/18 05:08:22;;;;;;;19.33;10.03;;;;;;;4.92;100.00;103124.41;5033961;28;20037;-84
2023/12/18 05:10:48;;;;;;;24.50;11.43;;;;;;;4.95;100.00;103127.09;5030357;28;20104;-84
2023/12/18 05:13:13;;;;;;;21.83;10.70;;;;;;;4.92;100.00;103122.72;5031148;28;20049;-85
2023/12/18 05:15:38;;;;;;;19.55;10.18;;;;;;;4.91;100.00;103122.66;5031534;28;20032;-85
2023/12/18 05:18:05;;;;;;;21.15;10.13;;;;;;;4.91;100.00;103118.38;5043500;28;20028;-85
2023/12/18 05:20:30;;;;;;;19.07;10.23;;;;;;;4.91;100.00;103112.34;5034521;28;20524;-85
2023/12/18 05:22:56;;;;;;;21.70;10.65;;;;;;;4.88;100.00;103118.28;5030967;28;20109;-86
2023/12/18 05:25:21;;;;;;;19.50;10.55;;;;;;;4.87;100.00;103111.34;5040923;28;20082;-85
2023/12/18 05:27:46;;;;;;;18.33;10.20;;;;;;;4.86;100.00;103105.34;5031520;28;20029;-86
2023/12/18 05:30:12;;;;;;;19.17;10.48;;;;;;;4.87;100.00;103111.34;5031904;28;20207;-86
2023/12/18 05:32:37;;;;;;;19.60;9.77;;;;;;;4.86;100.00;103114.75;5031968;28;20469;-85
2023/12/18 05:35:03;;;;;;;23.00;10.80;;;;;;;4.84;100.00;103121.56;5030899;28;20162;-85
2023/12/18 05:37:28;;;;;;;18.43;9.90;;;;;;;4.85;100.00;103128.47;5029778;28;20067;-85
2023/12/18 05:39:54;;;;;;;22.05;10.10;;;;;;;4.86;100.00;103128.56;5032724;28;20033;-85
2023/12/18 05:42:19;;;;;;;20.63;10.55;;;;;;;4.88;100.00;103118.28;5037903;28;20025;-84
2023/12/18 05:44:45;;;;;;;19.38;10.38;;;;;;;4.87;100.00;103116.50;5034544;28;20037;-84
2023/12/18 05:47:10;;;;;;;22.57;11.10;;;;;;;4.86;100.00;103119.91;5033348;28;20029;-85
2023/12/18 05:49:37;;;;;;;21.33;10.90;;;;;;;4.87;100.00;103119.09;5033220;28;20542;-85
2023/12/18 05:52:02;;;;;;;22.13;10.13;;;;;;;4.86;100.00;103125.97;5035257;28;20017;-85
2023/12/18 05:54:28;;;;;;;24.92;10.43;;;;;;;4.87;100.00;103119.09;5040398;28;20361;-84
2023/12/18 05:56:53;;;;;;;23.42;10.48;;;;;;;4.85;100.00;103131.06;5030843;28;20429;-85
2023/12/18 05:59:19;;;;;;;23.53;11.77;;;;;;;4.87;100.00;103126.84;5031127;28;20547;-85
2023/12/18 06:01:44;;;;;;;23.55;10.90;;;;;;;4.88;100.00;103123.44;5030943;28;20736;-84
2023/12/18 06:04:10;;;;;;;21.00;10.37;;;;;;;4.88;100.00;103113.13;5032852;28;20021;-83
2023/12/18 06:06:35;;;;;;;21.77;10.82;;;;;;;4.86;100.00;103123.38;5036594;28;20483;-84
2023/12/18 06:09:00;;;;;;;23.27;11.00;;;;;;;4.88;100.00;103114.81;5030330;28;20045;-85
2023/12/18 06:11:26;;;;;;;24.67;11.83;;;;;;;4.88;100.00;103123.44;5034401;28;20049;-85
2023/12/18 06:13:51;;;;;;;22.48;11.10;;;;;;;4.90;100.00;103114.06;5029109;28;20048;-85
2023/12/18 06:16:17;;;;;;;22.00;10.20;;;;;;;4.92;100.00;103108.94;5031874;28;20101;-84
2023/12/18 06:18:42;;;;;;;19.87;10.90;;;;;;;4.90;100.00;103116.63;5034141;28;20030;-86
2023/12/18 06:21:07;;;;;;;17.77;10.33;;;;;;;4.89;100.00;103111.41;5034183;28;20519;-85
2023/12/18 06:23:33;;;;;;;21.60;10.73;;;;;;;4.91;100.00;103125.22;5045375;28;20044;-85
2023/12/18 06:25:59;;;;;;;20.53;10.30;;;;;;;4.88;100.00;103118.28;5032983;28;20496;-85
2023/12/18 06:28:24;;;;;;;21.33;10.98;;;;;;;4.90;100.00;103116.63;5035991;28;20033;-86
2023/12/18 06:30:49;;;;;;;22.45;10.70;;;;;;;4.92;100.00;103119.25;5037216;28;20111;-85
2023/12/18 06:33:15;;;;;;;23.23;10.70;;;;;;;4.91;100.00;103112.34;5035522;28;20091;-85
2023/12/18 06:35:41;;;;;;;23.08;10.43;;;;;;;4.93;100.00;103116.75;5034003;28;20511;-85
2023/12/18 06:38:06;;;;;;;21.58;10.68;;;;;;;4.94;100.00;103122.75;5032822;28;20527;-85
2023/12/18 06:40:32;;;;;;;26.77;10.93;;;;;;;4.93;100.00;103110.69;5034027;28;20025;-85
2023/12/18 06:42:57;;;;;;;21.27;10.50;;;;;;;4.93;100.00;103111.59;5033480;28;20480;-85
2023/12/18 06:45:22;;;;;;;21.25;10.85;;;;;;;4.93;100.00;103116.75;5034327;28;20030;-85
2023/12/18 06:47:48;;;;;;;24.02;10.57;;;;;;;4.93;100.00;103111.59;5036658;28;20033;-85
2023/12/18 06:50:13;;;;;;;22.17;10.27;;;;;;;4.94;100.00;103122.75;5032640;28;20094;-86
2023/12/18 06:52:40;;;;;;;23.17;11.82;;;;;;;4.92;100.00;103108.94;5034462;28;20021;-86
2023/12/18 06:55:06;;;;;;;22.27;10.48;;;;;;;4.91;100.00;103108.06;5031922;28;20500;-85
2023/12/18 06:57:31;;;;;;;22.88;11.45;;;;;;;4.90;100.00;103116.63;5033193;28;20060;-86
2023/12/18 06:59:56;;;;;;;20.77;10.40;;;;;;;4.91;100.00;103114.91;5033437;28;20033;-85
2023/12/18 07:02:22;;;;;;;21.33;11.00;;;;;;;4.90;100.00;103115.72;5033837;28;20067;-86
2023/12/18 07:04:47;;;;;;;24.10;11.27;;;;;;;4.89;100.00;103111.41;5033072;28;20044;-85
2023/12/18 07:07:12;;;;;;;21.85;10.35;;;;;;;4.89;100.00;103109.72;5032382;28;20029;-85
2023/12/18 07:09:38;;;;;;;24.42;11.52;;;;;;;4.89;100.00;103119.13;5033064;28;20087;-85
2023/12/18 07:12:04;;;;;;;22.20;10.70;;;;;;;4.88;100.00;103122.53;5032051;28;20057;-85
2023/12/18 07:14:29;;;;;;;23.67;11.07;;;;;;;4.88;100.00;103127.69;5032474;28;20167;-85
2023/12/18 07:16:54;;;;;;;24.65;11.18;;;;;;;4.87;100.00;103121.66;5030750;28;20451;-86
2023/12/18 07:19:21;;;;;;;25.17;11.30;;;;;;;4.87;100.00;103126.84;5033248;28;20038;-84
2023/12/18 07:21:46;;;;;;;21.65;10.38;;;;;;;4.87;100.00;103121.66;5031293;28;20033;-85
2023/12/18 07:24:12;;;;;;;23.55;12.02;;;;;;;4.87;100.00;103126.84;5037278;28;20136;-86
2023/12/18 07:26:37;;;;;;;24.80;11.68;;;;;;;4.85;100.00;103123.31;5032930;28;20485;-85
2023/12/18 07:29:02;;;;;;;25.13;11.25;;;;;;;4.86;100.00;103125.06;5032493;28;20393;-85
2023/12/18 07:31:28;;;;;;;23.95;11.52;;;;;;;4.86;100.00;103119.91;5032512;28;20033;-85
2023/12/18 07:33:53;;;;;;;22.40;11.05;;;;;;;4.85;100.00;103125.91;5032449;28;20033;-85
2023/12/18 07:36:18;;;;;;;24.67;11.70;;;;;;;4.86;100.00;103125.06;5032010;28;20041;-85
2023/12/18 07:38:45;;;;;;;27.05;12.55;;;;;;;4.85;100.00;103124.22;5037162;28;20068;-86
2023/12/18 07:41:11;;;;;;;28.83;12.43;;;;;;;4.84;100.00;103122.47;5030799;28;20067;-85
2023/12/18 07:43:36;;;;;;;26.33;12.23;;;;;;;4.83;100.00;103131.00;5031897;28;20388;-85
2023/12/18 07:46:01;;;;;;;28.90;12.32;;;;;;;4.84;100.00;103132.78;5032434;28;20068;-85
2023/12/18 07:48:27;;;;;;;22.53;11.67;;;;;;;4.85;100.00;103136.22;5029310;28;20116;-85
2023/12/18 07:50:55;;;;;;;25.20;12.37;;;;;;;4.83;100.00;103130.13;5031613;28;20104;-85
2023/12/18 07:53:21;;;;;;;26.40;11.98;;;;;;;4.85;100.00;103125.91;5029544;28;20436;-84
2023/12/18 07:55:46;;;;;;;24.85;11.68;;;;;;;4.85;100.00;103118.16;5029874;28;20029;-85
2023/12/18 07:58:11;;;;;;;25.10;13.05;;;;;;;4.86;100.00;103120.81;5030885;28;20034;-85
2023/12/18 08:00:37;;;;;;;24.87;12.27;;;;;;;4.86;100.00;103109.59;5033274;28;20038;-84
2023/12/18 08:03:03;;;;;;;28.50;12.50;;;;;;;4.87;100.00;103121.66;5031698;28;20026;-85
2023/12/18 08:05:28;;;;;;;29.70;12.88;;;;;;;4.85;100.00;103116.47;5033330;28;20469;-85
2023/12/18 08:07:54;;;;;;;27.30;12.32;;;;;;;4.87;100.00;103111.34;5032304;28;20022;-85
2023/12/18 08:10:19;;;;;;;26.38;12.20;;;;;;;4.87;100.00;103119.09;5024195;28;20044;-85
2023/12/18 08:12:44;;;;;;;29.67;13.90;;;;;;;4.87;100.00;103111.34;5033155;28;20044;-85
2023/12/18 08:15:10;;;;;;;26.90;12.93;;;;;;;4.88;100.00;103105.38;5027868;28;20034;-87
2023/12/18 08:17:38;;;;;;;28.45;12.43;;;;;;;4.91;100.00;103110.66;5030796;28;20060;-85
2023/12/18 08:20:06;;;;;;;27.30;12.40;;;;;;;4.94;100.00;103107.28;5030167;28;20120;-84
2023/12/18 08:22:32;;;;;;;30.80;13.57;;;;;;;4.93;100.00;103109.00;5032120;28;20030;-87
2023/12/18 08:24:57;;;;;;;26.40;11.57;;;;;;;4.96;100.00;103109.06;5030441;28;20048;-90
2023/12/18 08:27:23;;;;;;;26.37;12.87;;;;;;;4.96;100.00;103100.47;5030862;28;20148;-84
2023/12/18 08:29:48;;;;;;;26.90;13.13;;;;;;;4.99;100.00;103104.03;5031781;28;20037;-85
2023/12/18 08:32:13;;;;;;;29.70;13.23;;;;;;;5.03;100.00;103096.41;5031306;28;20041;-85
2023/12/18 08:34:39;;;;;;;27.70;12.13;;;;;;;5.05;100.00;103099.91;5030895;28;20040;-83
2023/12/18 08:37:05;;;;;;;26.00;12.63;;;;;;;5.05;100.00;103095.63;5029190;28;20468;-83
2023/12/18 08:39:31;;;;;;;29.27;13.75;;;;;;;5.07;100.00;103098.28;5036033;28;20114;-84
2023/12/18 08:41:56;;;;;;;28.17;13.77;;;;;;;5.11;100.00;103101.00;5029891;28;20480;-83
2023/12/18 08:44:22;;;;;;;30.05;13.07;;;;;;;5.12;100.00;103102.75;5030349;28;20021;-83
2023/12/18 08:46:47;;;;;;;22.85;12.18;;;;;;;5.16;100.00;103094.28;5042783;28;20033;-84
2023/12/18 08:49:12;;;;;;;26.77;12.13;;;;;;;5.16;100.00;103083.97;5030625;28;20030;-83
2023/12/18 08:51:38;;;;;;;29.27;13.00;;;;;;;5.18;100.00;103086.59;5031037;28;20033;-83
2023/12/18 08:54:04;;;;;;;30.02;12.85;;;;;;;5.19;100.00;103080.59;5030254;28;20040;-83
2023/12/18 08:56:31;;;;;;;26.77;12.45;;;;;;;5.20;100.00;103079.78;5030951;28;20540;-85
2023/12/18 08:58:56;;;;;;;28.85;13.15;;;;;;;5.19;100.00;103078.03;5032622;28;20025;-85
2023/12/18 09:01:21;;;;;;;26.92;13.10;;;;;;;5.21;100.00;103078.97;5030392;28;20104;-84
2023/12/18 09:03:47;;;;;;;23.10;12.15;;;;;;;5.22;100.00;103085.88;5030252;28;20025;-84
2023/12/18 09:06:12;;;;;;;29.17;13.07;;;;;;;5.22;100.00;103080.72;5029740;28;20120;-85
2023/12/18 09:08:40;;;;;;;26.77;12.88;;;;;;;5.21;100.00;103081.53;5030944;28;20369;-85
2023/12/18 09:11:07;;;;;;;25.65;13.82;;;;;;;5.24;100.00;103078.16;5030437;28;20107;-85
2023/12/18 09:13:34;;;;;;;33.42;14.43;;;;;;;5.23;100.00;103074.72;5030283;28;20072;-85
2023/12/18 09:16:01;;;;;;;24.70;12.35;;;;;;;5.25;100.00;103077.34;5027927;28;20029;-85
2023/12/18 09:18:26;;;;;;;26.35;13.43;;;;;;;5.26;100.00;103076.53;5029981;28;20083;-86
2023/12/18 09:20:52;;;;;;;28.13;13.25;;;;;;;5.28;100.00;103080.03;5029492;28;20033;-84
2023/12/18 09:23:17;;;;;;;29.58;13.20;;;;;;;5.32;100.00;103080.16;5031883;28;20075;-84
2023/12/18 09:25:42;;;;;;;31.17;13.80;;;;;;;5.37;100.00;103087.19;5028799;28;20029;-86
2023/12/18 09:28:08;;;;;;;24.63;12.88;;;;;;;5.40;100.00;103087.31;5023459;28;20056;-84
2023/12/18 09:30:33;;;;;;;27.02;13.13;;;;;;;5.44;100.00;103086.56;5032449;28;20029;-85
2023/12/18 09:32:58;;;;;;;31.23;14.65;;;;;;;5.45;100.00;103089.19;5029672;28;20029;-84
2023/12/18 09:35:24;;;;;;;28.55;13.95;;;;;;;5.44;100.00;103078.84;5034442;28;20084;-84
2023/12/18 09:37:49;;;;;;;26.83;12.60;;;;;;;5.46;100.00;103082.34;5028930;28;20030;-83
2023/12/18 09:40:14;;;;;;;25.60;12.80;;;;;;;5.45;100.00;103093.50;5029653;28;20330;-83
2023/12/18 09:42:40;;;;;;;28.40;12.82;;;;;;;5.49;100.00;103097.91;5030099;28;20496;-83
2023/12/18 09:45:08;;;;;;;28.88;13.80;;;;;;;5.50;100.00;103097.09;5034484;28;20423;-83
2023/12/18 09:47:33;;;;;;;28.05;13.13;;;;;;;5.51;100.00;103091.09;5029419;28;20143;-87
2023/12/18 09:49:59;;;;;;;27.15;12.93;;;;;;;5.51;100.00;103088.50;5032102;28;20742;-84
2023/12/18 09:52:30;;;;;;;28.02;13.45;;;;;;;5.50;100.00;103086.75;5033321;28;20032;-87
2023/12/18 09:54:59;;;;;;;27.95;12.82;;;;;;;5.49;100.00;103092.75;5039519;28;20021;-85
2023/12/18 09:57:25;;;;;;;28.10;12.75;;;;;;;5.47;100.00;103095.28;5046531;28;20116;-85
2023/12/18 09:59:50;;;;;;;26.23;12.48;;;;;;;5.50;100.00;103084.16;5040976;28;20033;-85
2023/12/18 10:02:17;;;;;;;26.75;12.50;;;;;;;5.51;100.00;103093.66;5039147;28;20166;-86
2023/12/18 10:04:43;;;;;;;27.38;13.05;;;;;;;5.51;100.00;103085.94;5033913;28;20028;-85
2023/12/18 10:07:09;;;;;;;33.25;13.93;;;;;;;5.54;100.00;103085.16;5033739;28;20035;-85
2023/12/18 10:09:35;;;;;;;26.88;12.32;;;;;;;5.57;100.00;103080.97;5034288;28;20105;-85
2023/12/18 10:12:03;;;;;;;32.65;13.13;;;;;;;5.57;100.00;103075.81;5035918;28;20476;-85
2023/12/18 10:14:28;;;;;;;25.33;12.30;;;;;;;5.61;100.00;103066.44;5035643;28;20021;-85
2023/12/18 10:16:55;;;;;;;24.77;12.23;;;;;;;5.64;100.00;103066.53;5035347;28;20036;-86
2023/12/18 10:19:24;;;;;;;22.40;11.82;;;;;;;5.61;100.00;103062.16;5034772;28;20025;-86
2023/12/18 10:21:49;;;;;;;25.77;12.82;;;;;;;5.61;100.00;103066.44;5032303;28;20017;-86
2023/12/18 10:24:15;;;;;;;27.73;12.07;;;;;;;5.56;100.00;103068.88;5032904;28;20526;-85
2023/12/18 10:26:41;;;;;;;24.98;12.00;;;;;;;5.56;100.00;103050.81;5033565;28;20460;-86
2023/12/18 10:29:07;;;;;;;24.83;12.70;;;;;;;5.56;100.00;103058.56;5037061;28;20057;-85
2023/12/18 10:31:34;;;;;;;25.88;12.68;;;;;;;5.61;100.00;103058.69;5037226;28;20029;-85
2023/12/18 10:34:02;;;;;;;26.95;12.98;;;;;;;5.58;100.00;103056.91;5034413;28;20064;-86
2023/12/18 10:36:32;;;;;;;29.05;13.43;;;;;;;5.58;100.00;103051.75;5030365;28;20025;-86
2023/12/18 10:39:00;;;;;;;27.15;13.32;;;;;;;5.56;100.00;103050.81;5032102;28;20059;-86
2023/12/18 10:41:27;;;;;;;28.60;12.52;;;;;;;5.53;100.00;103053.28;5031880;28;20536;-86
2023/12/18 10:43:54;;;;;;;29.42;13.60;;;;;;;5.49;100.00;103046.28;5031870;28;20100;-86
2023/12/18 10:46:22;;;;;;;25.60;12.50;;;;;;;5.51;100.00;103038.59;5031846;28;20025;-86
2023/12/18 10:48:51;;;;;;;28.75;13.18;;;;;;;5.49;100.00;103030.78;5032683;28;20021;-86
2023/12/18 10:51:20;;;;;;;30.70;13.52;;;;;;;5.53;100.00;103026.63;5036745;28;20349;-83
2023/12/18 10:53:47;;;;;;;26.60;12.85;;;;;;;5.53;100.00;103032.63;5038472;28;20061;-84
2023/12/18 10:56:16;;;;;;;25.98;12.93;;;;;;;5.56;100.00;103030.16;5032748;28;20052;-84
2023/12/18 10:58:42;;;;;;;27.08;12.90;;;;;;;5.53;100.00;103027.47;5029057;28;20032;-86
2023/12/18 11:01:09;;;;;;;28.30;13.05;;;;;;;5.51;100.00;103021.38;5030786;28;20079;-85
2023/12/18 11:03:36;;;;;;;22.67;12.48;;;;;;;5.50;100.00;103016.19;5033147;28;20072;-84
2023/12/18 11:06:02;;;;;;;23.73;11.85;;;;;;;5.52;100.00;103011.94;5032345;28;20034;-84